SAVV/VDM METAR and TAF weather

Enter ICAO airport designator
Station Type Date Time Source
SAVV METAR 2019/11/25 17:12 UTC NOAA

SAVV 251712Z 32004KT 9999 TS FEW020 FEW025CB BKN100 23/15 Q1007


Station Type Date Time Source
SAVV Decoded METAR 2019/11/25 17:12 UTC NOAA

Viedma Aerodrome, Argentina (SAVV) 40-51S 063-01W 7M
Nov 25, 2019 - 12:12 PM EST / 2019.11.25 1712 UTC
Wind: from the NW (320 degrees) at 5 MPH (4 KT):0
Visibility: greater than 7 mile(s):0
Sky conditions: mostly cloudy
Weather: thunder; Cumulonimbus clouds observed
Temperature: 73 F (23 C)
Dew Point: 59 F (15 C)
Relative Humidity: 60%
Pressure (altimeter): 29.74 in. Hg (1007 hPa)
ob: SAVV 251712Z 32004KT 9999 TS FEW020 FEW025CB BKN100 23/15 Q1007
cycle: 17

Station Type Date Time Source
SAVV TAF 2019/04/29 06:24 UTC NOAA

TAF TAF SAVV 290500Z 2906/3006 29015KT CAVOK TX18/2919Z TN07/3006Z
BECMG 2908/3010 25010KT
TEMPO 2914/2921 25020G30KT

Example: see airport list